Time;durP1;ratioP1;P1;durP2;ratioP2;P2;SDS_P1;SDS_P2;PMS_P1;PMS_P2;Temp;Humidity;BMP_temperature;BMP_pressure;BME280_temperature;BME280_humidity;BME280_pressure;Samples;Min_cycle;Max_cycle;Signal;HPM_P1;HPM_P2
2022/10/17 00:01:15;;;;;;;5.60;3.70;;;19.00;96.70;;;;;;5081981;28;20043;-72
2022/10/17 00:03:45;;;;;;;6.50;3.30;;;19.00;96.70;;;;;;5083456;28;20048;-72
2022/10/17 00:06:14;;;;;;;4.60;3.70;;;19.00;96.70;;;;;;5083805;28;20119;-72
2022/10/17 00:08:42;;;;;;;4.28;3.45;;;18.90;96.70;;;;;;5080566;28;20147;-72
2022/10/17 00:11:14;;;;;;;6.65;3.75;;;18.80;96.70;;;;;;5083736;28;20040;-72
2022/10/17 00:13:41;;;;;;;4.97;3.88;;;18.80;96.70;;;;;;5076696;28;20048;-71
2022/10/17 00:16:09;;;;;;;6.88;3.33;;;18.80;96.70;;;;;;5079419;28;20040;-72
2022/10/17 00:18:37;;;;;;;5.90;3.28;;;18.80;96.70;;;;;;5082381;28;20080;-72
2022/10/17 00:21:14;;;;;;;5.95;3.38;;;18.70;96.70;;;;;;5083399;28;20043;-71
2022/10/17 00:23:42;;;;;;;6.47;3.20;;;18.80;96.70;;;;;;5082572;28;20040;-72
2022/10/17 00:26:10;;;;;;;5.50;3.22;;;18.70;96.70;;;;;;5081247;28;20449;-71
2022/10/17 00:28:37;;;;;;;4.63;3.13;;;18.70;96.70;;;;;;5082030;28;20071;-72
2022/10/17 00:31:07;;;;;;;6.38;3.00;;;18.70;96.70;;;;;;5081383;28;20746;-72
2022/10/17 00:33:35;;;;;;;7.00;3.55;;;18.70;96.70;;;;;;5082369;28;20054;-72
2022/10/17 00:36:07;;;;;;;7.63;3.30;;;18.70;96.70;;;;;;5081035;28;20044;-71
2022/10/17 00:38:36;;;;;;;4.60;3.10;;;18.60;96.70;;;;;;5077978;28;20143;-72
2022/10/17 00:41:04;;;;;;;7.32;3.10;;;18.60;96.70;;;;;;5080300;28;20036;-71
2022/10/17 00:43:50;;;;;;;5.95;3.17;;;18.60;96.70;;;;;;5075765;28;20052;-72
2022/10/17 00:46:19;;;;;;;8.07;3.72;;;18.60;96.70;;;;;;5081487;28;20110;-71
2022/10/17 00:48:49;;;;;;;5.03;3.20;;;18.60;96.70;;;;;;5100238;28;20040;-72
2022/10/17 00:51:23;;;;;;;6.65;3.25;;;18.60;96.70;;;;;;5088614;28;20040;-71
2022/10/17 00:53:51;;;;;;;5.18;2.75;;;18.60;96.70;;;;;;5073366;28;20489;-71
2022/10/17 00:56:20;;;;;;;5.90;3.60;;;18.60;96.70;;;;;;5081347;28;20048;-71
2022/10/17 00:58:48;;;;;;;8.98;3.40;;;18.50;96.70;;;;;;5081848;28;20386;-71
2022/10/17 01:01:16;;;;;;;9.52;3.47;;;18.50;96.70;;;;;;5080293;28;20430;-71
2022/10/17 01:03:44;;;;;;;4.20;3.33;;;18.50;96.70;;;;;;5083967;28;20084;-71
2022/10/17 01:06:12;;;;;;;3.58;3.17;;;18.50;96.70;;;;;;5084593;28;20400;-71
2022/10/17 01:08:41;;;;;;;5.13;2.75;;;18.50;96.70;;;;;;5086294;28;20040;-71
2022/10/17 01:11:19;;;;;;;5.82;3.10;;;18.50;96.70;;;;;;5082027;28;20051;-72
2022/10/17 01:13:52;;;;;;;4.53;2.97;;;18.40;96.70;;;;;;5085440;28;20591;-72
2022/10/17 01:16:31;;;;;;;6.68;3.55;;;18.30;96.70;;;;;;5084821;28;20143;-72
2022/10/17 01:19:09;;;;;;;4.45;3.25;;;18.30;96.70;;;;;;5085137;28;20052;-69
2022/10/17 01:21:49;;;;;;;6.07;3.25;;;18.30;96.70;;;;;;5086187;28;20039;-69
2022/10/17 01:24:48;;;;;;;5.13;3.33;;;18.30;96.70;;;;;;5076464;28;20083;-72
2022/10/17 01:27:50;;;;;;;4.95;3.28;;;18.20;96.70;;;;;;5112306;27;20539;-71
2022/10/17 01:30:46;;;;;;;6.47;3.25;;;18.20;96.70;;;;;;5082012;28;20043;-71
2022/10/17 01:33:23;;;;;;;5.03;3.00;;;18.20;96.70;;;;;;5090057;28;20072;-72
2022/10/17 01:35:56;;;;;;;4.82;3.33;;;18.20;96.70;;;;;;5075961;28;20538;-72
2022/10/17 01:38:37;;;;;;;4.35;3.33;;;18.20;96.70;;;;;;5069316;28;20106;-71
2022/10/17 01:41:11;;;;;;;5.95;3.08;;;18.10;96.70;;;;;;5082558;28;20101;-71
2022/10/17 01:43:43;;;;;;;7.40;3.85;;;18.10;96.70;;;;;;5080254;28;20096;-72
2022/10/17 01:46:16;;;;;;;4.72;3.00;;;18.10;96.70;;;;;;5085078;28;20115;-72
2022/10/17 01:48:46;;;;;;;5.28;3.20;;;18.10;96.70;;;;;;5085963;28;20067;-71
2022/10/17 01:51:19;;;;;;;4.18;3.28;;;18.10;96.70;;;;;;5068133;28;20044;-71
2022/10/17 01:53:52;;;;;;;4.28;2.92;;;18.10;96.70;;;;;;5082066;28;20068;-71
2022/10/17 01:56:24;;;;;;;4.45;2.92;;;18.00;96.70;;;;;;5084698;28;20048;-72
2022/10/17 01:58:56;;;;;;;6.10;3.20;;;18.00;96.70;;;;;;5067283;28;20054;-71
2022/10/17 02:01:25;;;;;;;6.10;3.10;;;18.00;96.70;;;;;;5084151;28;20438;-72
2022/10/17 02:03:57;;;;;;;5.45;3.22;;;18.00;96.70;;;;;;5085373;28;20160;-71
2022/10/17 02:06:26;;;;;;;3.38;3.05;;;17.90;96.70;;;;;;5085425;28;20059;-71
2022/10/17 02:08:55;;;;;;;4.20;3.33;;;17.90;96.70;;;;;;5083433;28;20508;-71
2022/10/17 02:11:25;;;;;;;4.97;3.80;;;17.90;96.70;;;;;;5074011;28;20643;-71
2022/10/17 02:14:12;;;;;;;6.65;3.58;;;17.90;96.70;;;;;;5101084;28;20044;-71
2022/10/17 02:16:49;;;;;;;7.03;3.92;;;17.90;96.70;;;;;;5068815;28;20056;-70
2022/10/17 02:19:37;;;;;;;5.40;3.05;;;17.90;96.70;;;;;;5079491;28;20059;-70
2022/10/17 02:22:16;;;;;;;6.03;3.28;;;17.90;96.70;;;;;;5066993;28;20390;-70
2022/10/17 02:24:51;;;;;;;5.43;3.08;;;17.80;96.70;;;;;;5083541;28;20531;-70
2022/10/17 02:27:31;;;;;;;5.13;3.53;;;17.80;96.70;;;;;;5085024;28;20130;-70
2022/10/17 02:30:05;;;;;;;4.90;3.40;;;17.80;96.70;;;;;;5080953;28;20059;-70
2022/10/17 02:32:39;;;;;;;5.15;3.63;;;17.80;96.70;;;;;;5085430;28;20040;-70
2022/10/17 02:35:12;;;;;;;5.40;3.30;;;17.70;96.70;;;;;;5084171;28;20044;-70
2022/10/17 02:37:43;;;;;;;8.07;3.55;;;17.70;96.70;;;;;;5084482;28;20052;-70
2022/10/17 02:40:14;;;;;;;4.15;3.13;;;17.70;96.70;;;;;;5080814;28;20041;-70
2022/10/17 02:42:44;;;;;;;4.13;3.10;;;17.70;96.70;;;;;;5081995;28;20044;-70
2022/10/17 02:45:12;;;;;;;7.07;3.83;;;17.70;96.70;;;;;;5084473;28;20324;-70
2022/10/17 02:47:50;;;;;;;6.45;3.00;;;17.70;96.70;;;;;;5083424;28;20048;-70
2022/10/17 02:50:27;;;;;;;6.00;3.70;;;17.60;96.70;;;;;;5084240;28;20076;-70
2022/10/17 02:53:00;;;;;;;3.55;2.80;;;17.60;96.70;;;;;;5084001;28;20127;-70
2022/10/17 02:55:36;;;;;;;5.68;2.72;;;17.70;96.70;;;;;;5082677;28;20048;-70
2022/10/17 02:58:10;;;;;;;4.45;3.05;;;17.60;96.70;;;;;;5083870;28;20076;-70
2022/10/17 03:00:43;;;;;;;3.92;2.63;;;17.60;96.70;;;;;;5083397;28;20761;-69
2022/10/17 03:03:20;;;;;;;4.22;3.20;;;17.60;96.70;;;;;;5084017;28;20409;-70
2022/10/17 03:05:51;;;;;;;4.00;2.83;;;17.60;96.70;;;;;;5084234;28;20633;-70
2022/10/17 03:08:22;;;;;;;4.25;2.85;;;17.60;96.70;;;;;;5082988;28;20042;-69
2022/10/17 03:10:50;;;;;;;5.00;3.00;;;17.50;96.70;;;;;;5082554;28;20149;-69
2022/10/17 03:13:21;;;;;;;4.55;2.88;;;17.50;96.70;;;;;;5079732;28;20055;-70
2022/10/17 03:15:49;;;;;;;3.20;2.90;;;17.50;96.70;;;;;;5082652;28;20068;-70
2022/10/17 03:18:17;;;;;;;4.43;3.15;;;17.50;96.70;;;;;;5081654;28;20041;-70
2022/10/17 03:20:47;;;;;;;5.05;2.65;;;17.50;96.70;;;;;;5076494;28;20080;-69
2022/10/17 03:23:16;;;;;;;4.60;3.45;;;17.40;96.70;;;;;;5084199;28;20554;-70
2022/10/17 03:25:44;;;;;;;5.40;3.45;;;17.40;96.70;;;;;;5108439;27;20044;-70
2022/10/17 03:28:14;;;;;;;3.30;2.63;;;17.50;96.70;;;;;;5080951;28;20070;-69
2022/10/17 03:30:42;;;;;;;6.00;2.65;;;17.50;96.70;;;;;;5098453;28;20047;-70
2022/10/17 03:33:10;;;;;;;3.92;2.85;;;17.40;96.70;;;;;;5084431;28;20064;-70
2022/10/17 03:35:39;;;;;;;3.70;2.72;;;17.40;96.70;;;;;;5083442;28;20063;-71
2022/10/17 03:38:07;;;;;;;4.30;2.97;;;17.40;96.70;;;;;;5083294;28;20043;-71
2022/10/17 03:40:37;;;;;;;3.80;3.08;;;17.40;96.70;;;;;;5065890;28;20047;-71
2022/10/17 03:43:05;;;;;;;4.10;3.40;;;17.40;96.70;;;;;;5082697;28;20044;-71
2022/10/17 03:45:33;;;;;;;4.97;2.90;;;17.40;96.70;;;;;;5081328;28;20044;-71
2022/10/17 03:48:01;;;;;;;5.20;2.75;;;17.40;96.70;;;;;;5080471;28;20049;-71
2022/10/17 03:50:29;;;;;;;3.58;2.75;;;17.30;96.70;;;;;;5082652;28;20056;-71
2022/10/17 03:52:58;;;;;;;5.60;2.83;;;17.30;96.70;;;;;;5082634;28;20035;-72
2022/10/17 03:55:26;;;;;;;5.00;3.05;;;17.20;96.70;;;;;;5084127;28;20055;-72
2022/10/17 03:57:55;;;;;;;4.72;3.10;;;17.20;96.70;;;;;;5081851;28;20046;-70
2022/10/17 04:00:23;;;;;;;3.47;2.97;;;17.20;96.70;;;;;;5082106;28;20786;-70
2022/10/17 04:02:56;;;;;;;3.42;2.42;;;17.10;96.70;;;;;;5082652;28;20523;-70
2022/10/17 04:05:25;;;;;;;6.40;2.80;;;17.20;96.70;;;;;;5083043;28;20063;-69
2022/10/17 04:07:53;;;;;;;8.35;4.03;;;17.20;96.70;;;;;;5080840;28;20493;-69
2022/10/17 04:10:30;;;;;;;3.58;2.50;;;17.20;96.70;;;;;;5081981;28;20044;-70
2022/10/17 04:13:00;;;;;;;5.55;3.08;;;17.20;96.70;;;;;;5081289;28;20047;-70
2022/10/17 04:15:27;;;;;;;4.70;2.72;;;17.30;96.70;;;;;;5084107;28;20040;-70
2022/10/17 04:17:55;;;;;;;4.47;3.00;;;17.30;96.70;;;;;;5082036;28;20046;-69
2022/10/17 04:20:23;;;;;;;5.57;3.08;;;17.30;96.70;;;;;;5094948;28;20051;-70
2022/10/17 04:22:51;;;;;;;4.40;2.83;;;17.20;96.70;;;;;;5082473;28;20497;-69
2022/10/17 04:25:19;;;;;;;3.63;2.80;;;17.20;96.70;;;;;;5083780;28;20048;-69
2022/10/17 04:27:48;;;;;;;3.67;3.03;;;17.10;96.70;;;;;;5083598;28;20036;-69
2022/10/17 04:30:17;;;;;;;5.68;2.95;;;17.20;96.70;;;;;;5084450;28;20385;-70
2022/10/17 04:32:45;;;;;;;5.00;2.88;;;17.10;96.70;;;;;;5081641;28;20502;-69
2022/10/17 04:35:19;;;;;;;3.33;2.65;;;17.10;96.70;;;;;;5080309;28;20052;-70
2022/10/17 04:37:53;;;;;;;5.47;3.30;;;17.10;96.70;;;;;;5062779;28;20044;-69
2022/10/17 04:40:22;;;;;;;3.97;3.05;;;17.10;96.70;;;;;;5080791;28;20136;-70
2022/10/17 04:42:52;;;;;;;5.28;4.00;;;17.00;96.70;;;;;;5062501;28;20054;-70
2022/10/17 04:45:28;;;;;;;4.13;3.65;;;17.00;96.70;;;;;;5080314;28;20772;-70
2022/10/17 04:47:59;;;;;;;5.28;4.10;;;16.90;96.70;;;;;;5077112;28;20521;-69
2022/10/17 04:50:27;;;;;;;5.60;3.78;;;16.90;96.70;;;;;;5081092;28;20072;-70
2022/10/17 04:53:14;;;;;;;7.13;4.13;;;16.90;96.70;;;;;;5081672;28;20055;-70
2022/10/17 04:55:43;;;;;;;5.65;3.63;;;16.90;96.70;;;;;;5080480;28;20071;-70
2022/10/17 04:58:11;;;;;;;6.32;3.85;;;17.00;96.70;;;;;;5062789;28;20048;-70
2022/10/17 05:00:40;;;;;;;4.75;3.38;;;17.00;96.70;;;;;;5075977;28;20085;-70
2022/10/17 05:03:16;;;;;;;5.68;4.00;;;16.90;96.70;;;;;;5078634;28;20494;-70
2022/10/17 05:05:44;;;;;;;4.20;3.28;;;16.90;96.70;;;;;;5080025;28;20125;-70
2022/10/17 05:08:12;;;;;;;4.57;3.47;;;16.80;96.70;;;;;;5084841;28;20374;-70
2022/10/17 05:10:45;;;;;;;3.33;3.00;;;16.80;96.70;;;;;;5076479;28;20048;-70
2022/10/17 05:13:14;;;;;;;4.97;3.80;;;16.80;96.70;;;;;;5082268;28;20441;-69
2022/10/17 05:15:43;;;;;;;6.75;3.70;;;16.80;96.70;;;;;;5081252;28;20052;-70
2022/10/17 05:18:12;;;;;;;4.85;3.05;;;16.80;96.70;;;;;;5064983;28;20048;-69
2022/10/17 05:20:42;;;;;;;4.60;3.13;;;16.80;96.70;;;;;;5078625;28;20421;-70
2022/10/17 05:23:10;;;;;;;6.18;3.72;;;16.70;96.70;;;;;;5066005;28;20052;-70
2022/10/17 05:25:41;;;;;;;4.95;3.17;;;16.70;96.70;;;;;;5072023;28;20052;-69
2022/10/17 05:28:09;;;;;;;4.25;2.90;;;16.70;96.70;;;;;;5078814;28;20047;-69
2022/10/17 05:30:39;;;;;;;5.20;3.33;;;16.70;96.70;;;;;;5078984;28;20040;-69
2022/10/17 05:33:10;;;;;;;5.05;3.20;;;16.80;96.70;;;;;;5082304;28;20044;-69
2022/10/17 05:35:38;;;;;;;6.65;3.25;;;16.80;96.70;;;;;;5098421;28;20056;-70
2022/10/17 05:38:05;;;;;;;5.82;3.35;;;16.90;96.70;;;;;;5078618;28;20068;-70
2022/10/17 05:40:35;;;;;;;4.25;3.55;;;16.80;96.70;;;;;;5080990;28;20545;-69
2022/10/17 05:43:02;;;;;;;4.53;3.20;;;16.70;96.70;;;;;;5083616;28;20729;-69
2022/10/17 05:45:30;;;;;;;4.95;2.85;;;16.70;96.70;;;;;;5080466;28;20062;-68
2022/10/17 05:47:59;;;;;;;6.53;3.67;;;16.80;96.70;;;;;;5082841;28;20055;-70
2022/10/17 05:50:29;;;;;;;5.90;3.10;;;16.80;96.70;;;;;;5085336;28;20048;-69
2022/10/17 05:53:11;;;;;;;9.20;3.97;;;16.70;96.70;;;;;;5084369;28;20452;-70
2022/10/17 05:55:44;;;;;;;6.90;3.70;;;16.80;96.70;;;;;;5076399;28;20143;-70
2022/10/17 05:58:12;;;;;;;8.07;3.97;;;16.80;96.70;;;;;;5083395;28;20047;-70
2022/10/17 06:00:57;;;;;;;8.20;3.88;;;16.80;96.70;;;;;;5084060;28;20561;-69
2022/10/17 06:03:27;;;;;;;8.13;4.07;;;16.80;96.70;;;;;;5084858;28;20055;-69
2022/10/17 06:06:01;;;;;;;7.75;4.10;;;16.80;96.70;;;;;;5086502;28;20097;-69
2022/10/17 06:08:29;;;;;;;7.90;4.05;;;16.80;96.70;;;;;;5079737;28;20059;-69
2022/10/17 06:10:57;;;;;;;7.55;4.03;;;16.80;96.70;;;;;;5085109;28;20132;-69
2022/10/17 06:13:25;;;;;;;6.22;3.90;;;16.90;96.70;;;;;;5084948;28;20036;-70
2022/10/17 06:15:54;;;;;;;5.97;3.83;;;16.90;96.70;;;;;;5084609;28;20418;-70
2022/10/17 06:18:23;;;;;;;7.07;4.15;;;16.90;96.70;;;;;;5084103;28;20060;-69
2022/10/17 06:20:52;;;;;;;8.27;4.15;;;17.00;96.70;;;;;;5082359;28;20048;-70
2022/10/17 06:23:22;;;;;;;6.75;4.07;;;17.00;96.70;;;;;;5083877;28;20052;-70
2022/10/17 06:26:04;;;;;;;7.35;4.03;;;16.90;96.70;;;;;;5084413;28;20198;-69
2022/10/17 06:28:32;;;;;;;5.45;3.95;;;17.00;96.70;;;;;;5083756;28;20048;-69
2022/10/17 06:31:04;;;;;;;7.65;4.68;;;17.00;96.70;;;;;;5084841;28;20048;-69
2022/10/17 06:33:32;;;;;;;12.23;5.22;;;17.00;96.70;;;;;;5085501;28;20050;-69
2022/10/17 06:36:02;;;;;;;11.52;5.90;;;17.10;96.70;;;;;;5084524;28;20040;-69
2022/10/17 06:38:33;;;;;;;13.43;5.78;;;17.20;96.70;;;;;;5083309;28;20052;-70
2022/10/17 06:41:07;;;;;;;13.27;6.35;;;17.10;96.70;;;;;;5081155;28;20049;-70
2022/10/17 06:43:35;;;;;;;11.90;5.32;;;17.10;96.70;;;;;;5085031;28;20280;-69
2022/10/17 06:46:28;;;;;;;10.48;5.63;;;17.20;96.70;;;;;;5078965;28;20149;-69
2022/10/17 06:48:59;;;;;;;9.48;5.53;;;17.20;96.70;;;;;;5082468;28;20094;-68
2022/10/17 06:51:45;;;;;;;12.10;6.97;;;17.20;96.70;;;;;;5084061;28;20051;-69
2022/10/17 06:54:17;;;;;;;15.05;7.07;;;17.30;96.70;;;;;;5083452;28;20135;-70
2022/10/17 06:57:11;;;;;;;9.02;5.85;;;17.30;96.70;;;;;;5032722;28;20052;-69
2022/10/17 06:59:49;;;;;;;9.77;5.07;;;17.40;96.70;;;;;;5030547;28;20049;-69
2022/10/17 07:02:23;;;;;;;10.38;4.78;;;17.40;96.70;;;;;;5024233;28;20038;-69
2022/10/17 07:04:52;;;;;;;9.02;5.07;;;17.50;96.70;;;;;;5027363;28;20056;-70
2022/10/17 07:07:20;;;;;;;9.70;4.80;;;17.50;96.70;;;;;;5029475;28;20041;-69
2022/10/17 07:09:51;;;;;;;6.20;3.55;;;17.50;96.70;;;;;;5026034;28;20053;-69
2022/10/17 07:12:20;;;;;;;6.88;3.53;;;17.50;96.70;;;;;;5031882;28;20269;-69
2022/10/17 07:14:49;;;;;;;4.47;4.00;;;17.40;96.70;;;;;;5005651;28;20053;-70
2022/10/17 07:17:17;;;;;;;5.82;3.72;;;17.40;96.70;;;;;;5032112;28;20692;-69
2022/10/17 07:19:46;;;;;;;4.63;3.63;;;17.40;96.70;;;;;;5026163;28;20486;-69
2022/10/17 07:22:14;;;;;;;4.45;3.45;;;17.50;96.70;;;;;;5030509;28;20073;-70
2022/10/17 07:24:46;;;;;;;6.05;3.80;;;17.50;96.70;;;;;;5024501;28;20040;-70
2022/10/17 07:27:21;;;;;;;14.52;4.95;;;17.50;96.70;;;;;;5013763;28;20049;-69
2022/10/17 07:29:49;;;;;;;10.40;4.07;;;17.60;96.70;;;;;;5027764;28;20068;-69
2022/10/17 07:32:23;;;;;;;6.47;3.42;;;17.60;96.70;;;;;;5026670;28;20521;-74
2022/10/17 07:34:51;;;;;;;6.05;3.78;;;17.70;96.70;;;;;;5069395;28;20077;-71
2022/10/17 07:37:19;;;;;;;6.50;4.07;;;17.70;96.70;;;;;;5083154;28;20044;-71
2022/10/17 07:39:52;;;;;;;7.07;4.18;;;17.80;96.70;;;;;;5083309;28;20048;-71
2022/10/17 07:42:22;;;;;;;7.90;4.47;;;17.80;96.70;;;;;;5084604;28;20075;-71
2022/10/17 07:44:50;;;;;;;6.30;4.50;;;17.90;96.70;;;;;;5079395;28;20036;-70
2022/10/17 07:47:19;;;;;;;8.52;4.65;;;17.90;96.70;;;;;;5083201;28;20109;-70
2022/10/17 07:49:48;;;;;;;9.18;5.32;;;18.00;96.70;;;;;;5099002;28;20064;-71
2022/10/17 07:52:16;;;;;;;9.00;5.07;;;18.00;96.70;;;;;;5085123;28;20123;-71
2022/10/17 07:54:44;;;;;;;7.07;4.78;;;18.10;96.70;;;;;;5081939;28;20047;-71
2022/10/17 07:57:12;;;;;;;10.70;5.28;;;18.20;96.70;;;;;;5084606;28;20124;-71
2022/10/17 07:59:41;;;;;;;7.60;6.05;;;18.30;96.70;;;;;;5081719;28;20489;-71
2022/10/17 08:02:17;;;;;;;8.25;5.97;;;18.30;96.70;;;;;;5081182;28;20048;-71
2022/10/17 08:04:45;;;;;;;7.57;5.88;;;18.30;96.70;;;;;;5083918;28;20397;-72
2022/10/17 08:07:14;;;;;;;7.82;5.53;;;18.40;96.70;;;;;;5083171;28;20642;-71
2022/10/17 08:09:51;;;;;;;6.82;5.93;;;18.50;96.70;;;;;;5081755;28;20418;-71
2022/10/17 08:12:19;;;;;;;8.55;5.25;;;18.60;96.70;;;;;;5083418;28;20048;-74
2022/10/17 08:14:49;;;;;;;9.05;5.85;;;18.70;96.70;;;;;;5083267;28;20040;-73
2022/10/17 08:17:16;;;;;;;8.50;5.40;;;18.70;96.70;;;;;;5082513;28;20040;-71
2022/10/17 08:19:44;;;;;;;9.25;6.00;;;18.80;96.70;;;;;;5082866;28;20184;-72
2022/10/17 08:22:12;;;;;;;7.95;5.43;;;18.90;96.70;;;;;;5081540;28;20047;-72
2022/10/17 08:24:41;;;;;;;7.40;5.07;;;19.00;96.70;;;;;;5082113;28;20044;-72
2022/10/17 08:27:12;;;;;;;5.70;4.65;;;19.10;96.70;;;;;;5082453;28;20974;-71
2022/10/17 08:29:40;;;;;;;9.52;5.70;;;19.20;96.70;;;;;;5080372;28;20123;-71
2022/10/17 08:32:09;;;;;;;8.25;5.70;;;19.20;96.70;;;;;;5080723;28;20048;-71
2022/10/17 08:34:37;;;;;;;9.27;5.03;;;19.30;96.70;;;;;;5082598;28;20044;-72
2022/10/17 08:37:05;;;;;;;5.90;4.90;;;19.40;96.70;;;;;;5079658;28;20505;-72
2022/10/17 08:39:32;;;;;;;6.72;5.55;;;19.40;96.70;;;;;;5083164;28;20509;-72
2022/10/17 08:42:17;;;;;;;6.40;5.45;;;19.40;96.70;;;;;;5076785;28;20055;-72
2022/10/17 08:44:53;;;;;;;9.27;5.30;;;19.50;96.70;;;;;;5081272;28;20122;-72
2022/10/17 08:47:27;;;;;;;8.05;5.32;;;19.50;96.70;;;;;;5082650;28;20063;-72
2022/10/17 08:49:59;;;;;;;5.60;5.00;;;19.50;96.70;;;;;;5082664;28;20051;-72
2022/10/17 08:52:36;;;;;;;6.82;5.15;;;19.60;96.70;;;;;;5082393;28;20113;-71
2022/10/17 08:55:13;;;;;;;8.02;4.68;;;19.70;96.70;;;;;;5081874;28;20046;-74
2022/10/17 08:57:41;;;;;;;6.28;5.20;;;19.80;96.70;;;;;;5080856;28;20127;-72
2022/10/17 09:00:17;;;;;;;8.65;5.28;;;19.80;96.70;;;;;;5081343;28;20051;-72
2022/10/17 09:03:02;;;;;;;7.33;5.30;;;19.90;96.70;;;;;;5079827;28;20052;-72
2022/10/17 09:05:38;;;;;;;7.00;4.95;;;20.00;96.70;;;;;;5082514;28;20060;-72
2022/10/17 09:08:27;;;;;;;5.50;4.93;;;20.10;96.70;;;;;;5065194;28;20476;-72
2022/10/17 09:10:59;;;;;;;7.72;5.47;;;20.20;96.70;;;;;;5080642;28;20032;-72
2022/10/17 09:13:42;;;;;;;9.20;5.07;;;20.30;96.70;;;;;;5083401;28;20048;-72
2022/10/17 09:16:31;;;;;;;8.60;5.70;;;20.40;96.70;;;;;;5075710;28;20379;-71
2022/10/17 09:19:03;;;;;;;6.78;4.93;;;20.50;96.70;;;;;;5080870;28;20060;-71
2022/10/17 09:21:40;;;;;;;7.85;5.38;;;20.60;96.70;;;;;;5076077;28;20062;-72
2022/10/17 09:24:11;;;;;;;;;;;20.60;96.70;;;;;;5086855;28;20040;-71
2022/10/17 09:26:44;;;;;;;8.25;4.50;;;20.70;96.70;;;;;;5085039;28;19977;-71
2022/10/17 09:29:19;;;;;;;7.15;6.43;;;20.90;96.70;;;;;;5085226;28;20051;-72
2022/10/17 09:31:52;;;;;;;6.13;4.72;;;21.00;96.70;;;;;;5083850;28;20421;-75
2022/10/17 09:34:25;;;;;;;7.95;6.07;;;21.10;96.70;;;;;;5086043;28;20051;-72
2022/10/17 09:36:56;;;;;;;6.50;4.72;;;21.20;96.70;;;;;;5086382;28;20082;-73
2022/10/17 09:39:25;;;;;;;10.15;5.35;;;21.30;96.70;;;;;;5085131;28;20398;-72
2022/10/17 09:41:54;;;;;;;6.90;4.63;;;21.40;96.70;;;;;;5086962;28;20070;-73
2022/10/17 09:44:24;;;;;;;5.97;4.30;;;21.50;96.70;;;;;;5066637;28;20472;-72
2022/10/17 09:47:08;;;;;;;6.47;4.65;;;21.60;96.70;;;;;;5087066;28;20075;-72
2022/10/17 09:49:40;;;;;;;6.78;4.93;;;21.70;96.70;;;;;;5084704;28;20051;-72
2022/10/17 09:52:12;;;;;;;5.63;4.68;;;21.70;96.70;;;;;;5083111;28;20056;-72
2022/10/17 09:54:44;;;;;;;5.68;4.20;;;21.90;96.70;;;;;;5083488;28;20052;-72
2022/10/17 09:57:14;;;;;;;5.50;4.05;;;22.10;96.70;;;;;;5085066;28;20048;-72
2022/10/17 09:59:44;;;;;;;5.22;3.92;;;22.20;96.70;;;;;;5085557;28;20490;-72
2022/10/17 10:02:20;;;;;;;6.32;4.47;;;22.30;96.70;;;;;;5086231;28;20043;-72
2022/10/17 10:04:59;;;;;;;7.50;3.78;;;22.30;96.70;;;;;;5085669;28;20040;-72
2022/10/17 10:07:35;;;;;;;6.53;3.78;;;22.40;96.70;;;;;;5076886;28;20056;-72
2022/10/17 10:10:06;;;;;;;5.20;4.10;;;22.40;96.70;;;;;;5083531;28;20501;-72
2022/10/17 10:12:36;;;;;;;4.72;4.00;;;22.50;96.70;;;;;;5084485;28;20058;-72
2022/10/17 10:15:31;;;;;;;3.85;3.50;;;22.60;96.70;;;;;;5086207;28;20050;-73
2022/10/17 10:17:59;;;;;;;5.65;3.65;;;22.70;96.70;;;;;;5085247;28;20043;-72
2022/10/17 10:20:31;;;;;;;5.60;3.55;;;22.80;96.70;;;;;;5085666;28;20040;-71
2022/10/17 10:23:21;;;;;;;12.02;5.03;;;22.80;96.70;;;;;;5085146;28;20127;-73
2022/10/17 10:25:53;;;;;;;5.25;3.75;;;23.00;96.70;;;;;;5080423;28;20489;-73
2022/10/17 10:28:26;;;;;;;5.47;3.85;;;23.10;96.70;;;;;;5084086;28;20044;-73
2022/10/17 10:30:56;;;;;;;5.28;4.03;;;23.10;96.70;;;;;;5086272;28;20138;-73
2022/10/17 10:33:27;;;;;;;6.93;3.88;;;23.20;96.70;;;;;;5085679;28;20524;-73
2022/10/17 10:36:00;;;;;;;6.55;4.28;;;23.20;96.70;;;;;;5085689;28;20075;-73
2022/10/17 10:38:29;;;;;;;7.00;3.88;;;23.30;96.70;;;;;;5085166;28;20050;-73
2022/10/17 10:41:03;;;;;;;5.85;4.28;;;23.40;96.70;;;;;;5085795;28;20582;-72
2022/10/17 10:43:34;;;;;;;5.55;4.65;;;23.40;96.70;;;;;;5084033;28;20138;-72
2022/10/17 10:46:15;;;;;;;6.45;3.92;;;23.40;96.70;;;;;;5084526;28;20052;-72
2022/10/17 10:48:50;;;;;;;5.15;4.20;;;23.50;96.70;;;;;;5081983;28;20144;-72
2022/10/17 10:51:26;;;;;;;4.90;4.07;;;23.60;96.70;;;;;;5084148;28;20052;-73
2022/10/17 10:54:07;;;;;;;6.70;4.68;;;23.60;96.70;;;;;;5084744;28;20044;-73
2022/10/17 10:56:39;;;;;;;5.43;4.07;;;23.70;96.70;;;;;;5078716;28;20501;-73
2022/10/17 10:59:17;;;;;;;7.40;4.88;;;23.80;96.70;;;;;;5085007;28;20066;-73
2022/10/17 11:01:51;;;;;;;6.25;4.38;;;23.70;96.70;;;;;;5079441;28;20064;-72
2022/10/17 11:04:28;;;;;;;4.60;3.60;;;23.90;96.70;;;;;;5085050;28;20048;-73
2022/10/17 11:07:03;;;;;;;7.30;4.68;;;24.00;96.70;;;;;;5084563;28;20474;-72
2022/10/17 11:09:44;;;;;;;7.22;4.40;;;24.00;96.70;;;;;;5082016;28;21192;-72
2022/10/17 11:12:17;;;;;;;5.32;4.05;;;24.00;96.70;;;;;;5084905;28;20108;-72
2022/10/17 11:14:51;;;;;;;6.00;3.90;;;24.10;96.70;;;;;;5085299;28;20098;-72
2022/10/17 11:17:31;;;;;;;5.63;4.22;;;24.10;96.70;;;;;;5084741;28;20040;-73
2022/10/17 11:20:10;;;;;;;6.68;4.20;;;24.20;96.70;;;;;;5080381;28;20485;-72
2022/10/17 11:22:43;;;;;;;6.68;4.68;;;24.50;96.70;;;;;;5066589;28;20464;-72
2022/10/17 11:25:27;;;;;;;4.30;3.72;;;24.60;96.70;;;;;;5081874;28;20907;-73
2022/10/17 11:27:55;;;;;;;5.53;3.85;;;24.80;96.70;;;;;;5084835;28;20109;-73
2022/10/17 11:30:40;;;;;;;3.88;3.33;;;24.90;96.70;;;;;;5080395;28;20421;-72
2022/10/17 11:33:17;;;;;;;4.22;3.33;;;24.80;96.70;;;;;;5084260;28;20036;-72
2022/10/17 11:35:48;;;;;;;7.80;3.78;;;24.80;96.70;;;;;;5083440;28;20520;-73
2022/10/17 11:38:40;;;;;;;7.05;3.95;;;24.80;96.70;;;;;;5080339;28;20472;-72
2022/10/17 11:41:12;;;;;;;5.68;3.60;;;24.90;96.70;;;;;;5083202;28;20097;-73
2022/10/17 11:43:49;;;;;;;5.45;3.58;;;25.00;96.70;;;;;;5094425;28;20044;-73
2022/10/17 11:46:22;;;;;;;4.47;3.70;;;25.10;96.70;;;;;;5082513;28;20051;-73
2022/10/17 11:49:01;;;;;;;5.40;3.92;;;25.30;96.70;;;;;;5079435;28;20070;-73
2022/10/17 11:51:35;;;;;;;7.47;3.60;;;25.40;96.70;;;;;;5083030;28;20086;-73
2022/10/17 11:54:29;;;;;;;4.20;3.20;;;25.60;96.70;;;;;;5080418;28;20040;-73
2022/10/17 11:57:14;;;;;;;5.70;3.10;;;25.80;96.70;;;;;;5083891;28;20043;-73
2022/10/17 11:59:57;;;;;;;3.10;2.75;;;25.70;96.70;;;;;;5079074;28;20063;-73
2022/10/17 12:02:35;;;;;;;4.60;3.20;;;25.80;96.70;;;;;;5084475;28;20043;-73
2022/10/17 12:05:17;;;;;;;6.78;3.05;;;25.90;96.70;;;;;;5076281;28;20498;-73
2022/10/17 12:07:50;;;;;;;5.50;3.28;;;26.00;96.70;;;;;;5084023;28;20083;-75
2022/10/17 12:10:32;;;;;;;5.22;3.33;;;26.00;96.70;;;;;;5080853;28;20048;-76
2022/10/17 12:13:29;;;;;;;4.75;3.00;;;26.00;96.70;;;;;;5081803;28;20044;-75
2022/10/17 12:16:36;;;;;;;5.30;2.97;;;26.10;96.70;;;;;;5046279;28;20584;-76
2022/10/17 12:19:27;;;;;;;4.60;3.40;;;26.10;96.70;;;;;;5078171;28;20079;-75
2022/10/17 12:22:24;;;;;;;7.30;3.40;;;26.20;96.70;;;;;;5082884;28;20036;-75
2022/10/17 12:24:56;;;;;;;4.35;3.10;;;26.30;96.70;;;;;;5079168;28;20519;-75
2022/10/17 12:27:38;;;;;;;3.35;2.88;;;26.40;96.70;;;;;;5081917;28;20054;-75
2022/10/17 12:30:18;;;;;;;7.13;3.22;;;26.50;96.70;;;;;;5083151;28;20040;-76
2022/10/17 12:32:59;;;;;;;2.70;2.45;;;26.60;96.70;;;;;;5082160;28;20736;-75
2022/10/17 12:35:36;;;;;;;5.82;3.22;;;26.60;96.70;;;;;;5080752;28;20040;-75
2022/10/17 12:38:28;;;;;;;5.57;3.08;;;26.70;96.70;;;;;;5082394;28;20043;-74
2022/10/17 12:41:04;;;;;;;5.10;2.75;;;26.80;96.70;;;;;;5081920;28;20040;-73
2022/10/17 12:43:50;;;;;;;7.10;3.60;;;27.00;96.70;;;;;;5078176;28;20120;-73
2022/10/17 12:46:56;;;;;;;6.60;3.03;;;27.10;96.70;;;;;;5083129;28;20608;-73
2022/10/17 12:49:47;;;;;;;5.25;2.70;;;27.20;96.70;;;;;;5080714;28;20048;-73
2022/10/17 12:52:42;;;;;;;6.25;3.15;;;27.30;96.70;;;;;;5081017;28;20051;-73
2022/10/17 12:55:13;;;;;;;4.72;2.88;;;27.30;96.70;;;;;;5081588;28;20097;-72
2022/10/17 12:57:49;;;;;;;7.80;3.47;;;27.40;96.70;;;;;;5080887;28;20070;-72
2022/10/17 13:00:22;;;;;;;4.93;2.53;;;27.50;96.70;;;;;;5081289;28;20553;-72
2022/10/17 13:02:53;;;;;;;3.58;2.88;;;27.50;96.70;;;;;;5081135;28;20044;-72
2022/10/17 13:05:27;;;;;;;4.55;3.30;;;27.60;96.70;;;;;;5081532;28;20048;-72
2022/10/17 13:07:58;;;;;;;3.75;2.53;;;27.70;96.70;;;;;;5080248;28;20409;-72
2022/10/17 13:10:28;;;;;;;7.28;2.75;;;27.70;96.70;;;;;;5083014;28;20497;-73
2022/10/17 13:13:05;;;;;;;5.80;3.25;;;27.80;96.70;;;;;;5082420;28;20043;-72
2022/10/17 13:15:36;;;;;;;5.93;2.95;;;27.80;96.70;;;;;;5079952;28;20055;-73
2022/10/17 13:18:04;;;;;;;4.93;2.88;;;27.80;96.70;;;;;;5083062;28;20367;-72